sensor_id;sensor_type;location;lat;lon;timestamp;pressure;altitude;pressure_sealevel;temperature;humidity
39949;BME280;29070;48.102;-1.652;2023-07-09T00:02:54;101558.84;;;22.02;56.03
39949;BME280;29070;48.102;-1.652;2023-07-09T00:07:54;101550.53;;;21.98;56.54
39949;BME280;29070;48.102;-1.652;2023-07-09T00:12:55;101542.50;;;21.98;56.53
39949;BME280;29070;48.102;-1.652;2023-07-09T00:17:55;101554.78;;;21.99;56.57
39949;BME280;29070;48.102;-1.652;2023-07-09T00:22:55;101560.63;;;21.96;56.53
39949;BME280;29070;48.102;-1.652;2023-07-09T00:27:57;101561.16;;;21.93;56.76
39949;BME280;29070;48.102;-1.652;2023-07-09T00:32:58;101549.59;;;21.87;56.63
39949;BME280;29070;48.102;-1.652;2023-07-09T00:37:58;101560.47;;;21.81;56.79
39949;BME280;29070;48.102;-1.652;2023-07-09T00:43:01;101588.25;;;21.80;56.99
39949;BME280;29070;48.102;-1.652;2023-07-09T00:48:04;101572.44;;;21.73;56.88
39949;BME280;29070;48.102;-1.652;2023-07-09T00:53:15;101569.44;;;21.69;57.78
39949;BME280;29070;48.102;-1.652;2023-07-09T00:58:19;101569.38;;;21.64;57.70
39949;BME280;29070;48.102;-1.652;2023-07-09T01:03:43;101537.19;;;21.54;57.80
39949;BME280;29070;48.102;-1.652;2023-07-09T01:08:45;101548.03;;;21.47;58.01
39949;BME280;29070;48.102;-1.652;2023-07-09T01:13:45;101563.81;;;21.49;58.17
39949;BME280;29070;48.102;-1.652;2023-07-09T01:18:46;101574.75;;;21.47;58.23
39949;BME280;29070;48.102;-1.652;2023-07-09T01:23:48;101581.38;;;21.45;58.54
39949;BME280;29070;48.102;-1.652;2023-07-09T01:28:49;101579.75;;;21.44;58.58
39949;BME280;29070;48.102;-1.652;2023-07-09T01:33:50;101580.75;;;21.38;58.54
39949;BME280;29070;48.102;-1.652;2023-07-09T01:38:51;101599.69;;;21.36;58.69
39949;BME280;29070;48.102;-1.652;2023-07-09T01:43:53;101616.75;;;21.35;59.03
39949;BME280;29070;48.102;-1.652;2023-07-09T01:48:54;101600.41;;;21.31;59.25
39949;BME280;29070;48.102;-1.652;2023-07-09T01:53:54;101602.75;;;21.28;59.52
39949;BME280;29070;48.102;-1.652;2023-07-09T01:58:55;101591.44;;;21.21;59.74
39949;BME280;29070;48.102;-1.652;2023-07-09T02:04:01;101594.53;;;21.12;60.18
39949;BME280;29070;48.102;-1.652;2023-07-09T02:09:01;101606.50;;;21.10;59.97
39949;BME280;29070;48.102;-1.652;2023-07-09T02:14:01;101601.34;;;21.03;60.13
39949;BME280;29070;48.102;-1.652;2023-07-09T02:19:02;101588.25;;;21.02;60.21
39949;BME280;29070;48.102;-1.652;2023-07-09T02:24:02;101572.78;;;21.04;60.36
39949;BME280;29070;48.102;-1.652;2023-07-09T02:29:03;101589.75;;;20.98;61.02
39949;BME280;29070;48.102;-1.652;2023-07-09T02:34:03;101594.38;;;21.02;60.52
39949;BME280;29070;48.102;-1.652;2023-07-09T02:39:03;101576.97;;;21.00;60.85
39949;BME280;29070;48.102;-1.652;2023-07-09T02:44:04;101578.03;;;20.99;61.08
39949;BME280;29070;48.102;-1.652;2023-07-09T02:49:05;101583.38;;;20.99;61.07
39949;BME280;29070;48.102;-1.652;2023-07-09T02:54:06;101585.41;;;20.91;61.25
39949;BME280;29070;48.102;-1.652;2023-07-09T02:59:06;101580.06;;;20.91;61.48
39949;BME280;29070;48.102;-1.652;2023-07-09T03:04:07;101572.06;;;20.91;61.46
39949;BME280;29070;48.102;-1.652;2023-07-09T03:09:08;101574.97;;;20.90;61.57
39949;BME280;29070;48.102;-1.652;2023-07-09T03:14:09;101574.66;;;20.86;61.66
39949;BME280;29070;48.102;-1.652;2023-07-09T03:19:09;101583.38;;;20.82;62.21
39949;BME280;29070;48.102;-1.652;2023-07-09T03:24:10;101576.09;;;20.77;62.17
39949;BME280;29070;48.102;-1.652;2023-07-09T03:29:10;101584.13;;;20.77;61.97
39949;BME280;29070;48.102;-1.652;2023-07-09T03:34:11;101573.44;;;20.77;61.99
39949;BME280;29070;48.102;-1.652;2023-07-09T03:39:11;101575.03;;;20.78;62.08
39949;BME280;29070;48.102;-1.652;2023-07-09T03:44:12;101570.22;;;20.75;62.32
39949;BME280;29070;48.102;-1.652;2023-07-09T03:49:13;101561.56;;;20.68;62.46
39949;BME280;29070;48.102;-1.652;2023-07-09T03:54:13;101541.63;;;20.59;62.45
39949;BME280;29070;48.102;-1.652;2023-07-09T03:59:13;101537.41;;;20.46;62.54
39949;BME280;29070;48.102;-1.652;2023-07-09T04:04:14;101535.47;;;20.41;62.82
39949;BME280;29070;48.102;-1.652;2023-07-09T04:09:14;101533.28;;;20.38;63.10
39949;BME280;29070;48.102;-1.652;2023-07-09T04:14:15;101547.41;;;20.38;63.23
39949;BME280;29070;48.102;-1.652;2023-07-09T04:19:15;101563.41;;;20.38;63.17
39949;BME280;29070;48.102;-1.652;2023-07-09T04:24:17;101552.41;;;20.35;63.42
39949;BME280;29070;48.102;-1.652;2023-07-09T04:29:18;101581.75;;;20.35;63.73
39949;BME280;29070;48.102;-1.652;2023-07-09T04:34:18;101610.75;;;20.31;63.83
39949;BME280;29070;48.102;-1.652;2023-07-09T04:39:18;101618.97;;;20.30;63.87
39949;BME280;29070;48.102;-1.652;2023-07-09T04:44:19;101646.81;;;20.34;63.58
39949;BME280;29070;48.102;-1.652;2023-07-09T04:49:19;101653.41;;;20.31;64.04
39949;BME280;29070;48.102;-1.652;2023-07-09T04:54:19;101672.47;;;20.23;63.92
39949;BME280;29070;48.102;-1.652;2023-07-09T04:59:22;101656.59;;;20.16;64.17
39949;BME280;29070;48.102;-1.652;2023-07-09T05:04:23;101663.06;;;20.21;64.27
39949;BME280;29070;48.102;-1.652;2023-07-09T05:09:24;101657.91;;;20.02;64.66
39949;BME280;29070;48.102;-1.652;2023-07-09T05:14:26;101633.59;;;19.87;65.05
39949;BME280;29070;48.102;-1.652;2023-07-09T05:19:27;101670.88;;;19.87;65.23
39949;BME280;29070;48.102;-1.652;2023-07-09T05:24:27;101679.03;;;19.80;65.26
39949;BME280;29070;48.102;-1.652;2023-07-09T05:29:27;101670.44;;;19.90;65.35
39949;BME280;29070;48.102;-1.652;2023-07-09T05:34:28;101668.00;;;20.00;65.00
39949;BME280;29070;48.102;-1.652;2023-07-09T05:39:28;101682.81;;;19.96;65.29
39949;BME280;29070;48.102;-1.652;2023-07-09T05:44:29;101723.38;;;19.98;65.42
39949;BME280;29070;48.102;-1.652;2023-07-09T05:49:29;101709.34;;;20.03;65.56
39949;BME280;29070;48.102;-1.652;2023-07-09T05:54:29;101715.38;;;19.98;65.89
39949;BME280;29070;48.102;-1.652;2023-07-09T05:59:29;101692.31;;;20.04;65.75
39949;BME280;29070;48.102;-1.652;2023-07-09T06:04:30;101669.91;;;20.16;66.05
39949;BME280;29070;48.102;-1.652;2023-07-09T06:09:33;101673.94;;;20.31;65.98
39949;BME280;29070;48.102;-1.652;2023-07-09T06:14:34;101675.06;;;20.35;66.02
39949;BME280;29070;48.102;-1.652;2023-07-09T06:19:34;101699.28;;;20.45;66.03
39949;BME280;29070;48.102;-1.652;2023-07-09T06:24:35;101696.03;;;20.43;65.97
39949;BME280;29070;48.102;-1.652;2023-07-09T06:29:35;101687.47;;;20.41;66.21
39949;BME280;29070;48.102;-1.652;2023-07-09T06:34:35;101700.75;;;20.53;66.19
39949;BME280;29070;48.102;-1.652;2023-07-09T06:39:35;101690.06;;;20.65;66.27
39949;BME280;29070;48.102;-1.652;2023-07-09T06:44:36;101713.13;;;20.71;65.93
39949;BME280;29070;48.102;-1.652;2023-07-09T06:49:36;101683.53;;;20.72;66.22
39949;BME280;29070;48.102;-1.652;2023-07-09T06:54:37;101696.97;;;20.78;66.23
39949;BME280;29070;48.102;-1.652;2023-07-09T06:59:37;101700.63;;;20.88;65.96
39949;BME280;29070;48.102;-1.652;2023-07-09T07:04:38;101712.84;;;20.84;65.88
39949;BME280;29070;48.102;-1.652;2023-07-09T07:09:38;101709.13;;;20.85;66.13
39949;BME280;29070;48.102;-1.652;2023-07-09T07:14:38;101708.75;;;20.93;65.84
39949;BME280;29070;48.102;-1.652;2023-07-09T07:19:39;101707.28;;;21.03;66.02
39949;BME280;29070;48.102;-1.652;2023-07-09T07:24:39;101708.44;;;21.07;65.69
39949;BME280;29070;48.102;-1.652;2023-07-09T07:29:39;101711.19;;;21.12;65.47
39949;BME280;29070;48.102;-1.652;2023-07-09T07:34:40;101696.66;;;21.20;65.59
39949;BME280;29070;48.102;-1.652;2023-07-09T07:39:40;101717.25;;;21.24;65.29
39949;BME280;29070;48.102;-1.652;2023-07-09T07:44:41;101724.94;;;21.04;65.54
39949;BME280;29070;48.102;-1.652;2023-07-09T07:49:41;101713.28;;;21.10;65.49
39949;BME280;29070;48.102;-1.652;2023-07-09T07:55:00;101696.97;;;21.23;65.38
39949;BME280;29070;48.102;-1.652;2023-07-09T08:00:00;101700.69;;;21.39;65.31
39949;BME280;29070;48.102;-1.652;2023-07-09T08:05:01;101699.06;;;21.55;64.95
39949;BME280;29070;48.102;-1.652;2023-07-09T08:10:01;101701.50;;;21.74;65.29
39949;BME280;29070;48.102;-1.652;2023-07-09T08:15:02;101704.25;;;21.79;65.01
39949;BME280;29070;48.102;-1.652;2023-07-09T08:20:02;101715.13;;;21.94;65.15
39949;BME280;29070;48.102;-1.652;2023-07-09T08:25:03;101716.75;;;21.95;64.72
39949;BME280;29070;48.102;-1.652;2023-07-09T08:30:04;101713.28;;;21.95;64.55
39949;BME280;29070;48.102;-1.652;2023-07-09T08:35:05;101721.03;;;21.96;64.45
39949;BME280;29070;48.102;-1.652;2023-07-09T08:40:11;101741.22;;;21.87;64.45
39949;BME280;29070;48.102;-1.652;2023-07-09T08:55:38;101736.16;;;21.51;65.99
39949;BME280;29070;48.102;-1.652;2023-07-09T09:01:05;101741.09;;;21.60;66.03
39949;BME280;29070;48.102;-1.652;2023-07-09T09:06:26;101750.88;;;21.71;66.44
39949;BME280;29070;48.102;-1.652;2023-07-09T09:12:04;101748.69;;;21.85;66.64
39949;BME280;29070;48.102;-1.652;2023-07-09T09:17:14;101751.50;;;21.95;66.19
39949;BME280;29070;48.102;-1.652;2023-07-09T09:22:17;101761.28;;;22.06;65.84
39949;BME280;29070;48.102;-1.652;2023-07-09T09:27:21;101767.97;;;22.26;65.29
39949;BME280;29070;48.102;-1.652;2023-07-09T09:37:31;101767.88;;;22.60;64.95
39949;BME280;29070;48.102;-1.652;2023-07-09T09:42:32;101784.41;;;22.57;64.37
39949;BME280;29070;48.102;-1.652;2023-07-09T09:47:32;101780.31;;;22.49;63.88
39949;BME280;29070;48.102;-1.652;2023-07-09T09:52:33;101777.41;;;22.51;64.14
39949;BME280;29070;48.102;-1.652;2023-07-09T09:57:34;101769.34;;;22.73;64.21
39949;BME280;29070;48.102;-1.652;2023-07-09T10:02:38;101770.31;;;22.89;63.81
39949;BME280;29070;48.102;-1.652;2023-07-09T10:08:08;101747.53;;;23.08;63.72
39949;BME280;29070;48.102;-1.652;2023-07-09T10:13:18;101754.31;;;23.21;62.98
39949;BME280;29070;48.102;-1.652;2023-07-09T10:18:38;101789.97;;;23.21;62.74
39949;BME280;29070;48.102;-1.652;2023-07-09T10:24:11;101800.53;;;23.06;62.50
39949;BME280;29070;48.102;-1.652;2023-07-09T10:34:54;101806.25;;;22.71;62.68
39949;BME280;29070;48.102;-1.652;2023-07-09T10:39:57;101801.59;;;22.61;63.26
39949;BME280;29070;48.102;-1.652;2023-07-09T10:45:11;101808.94;;;22.49;63.02
39949;BME280;29070;48.102;-1.652;2023-07-09T10:50:17;101806.84;;;22.51;62.89
39949;BME280;29070;48.102;-1.652;2023-07-09T11:00:48;101805.28;;;22.55;63.24
39949;BME280;29070;48.102;-1.652;2023-07-09T11:05:50;101789.16;;;22.50;63.10
39949;BME280;29070;48.102;-1.652;2023-07-09T11:10:55;101796.00;;;22.40;63.62
39949;BME280;29070;48.102;-1.652;2023-07-09T11:15:57;101799.84;;;22.50;63.33
39949;BME280;29070;48.102;-1.652;2023-07-09T11:21:01;101787.66;;;22.59;63.26
39949;BME280;29070;48.102;-1.652;2023-07-09T11:26:14;101800.13;;;22.70;62.72
39949;BME280;29070;48.102;-1.652;2023-07-09T11:37:08;101804.78;;;22.58;63.32
39949;BME280;29070;48.102;-1.652;2023-07-09T11:42:32;101803.97;;;22.57;63.49
39949;BME280;29070;48.102;-1.652;2023-07-09T11:47:38;101799.00;;;22.66;63.49
39949;BME280;29070;48.102;-1.652;2023-07-09T11:52:48;101796.97;;;22.78;63.37
39949;BME280;29070;48.102;-1.652;2023-07-09T11:58:00;101796.59;;;22.92;63.07
39949;BME280;29070;48.102;-1.652;2023-07-09T12:03:01;101791.31;;;22.97;62.70
39949;BME280;29070;48.102;-1.652;2023-07-09T12:08:01;101799.59;;;22.95;63.59
39949;BME280;29070;48.102;-1.652;2023-07-09T12:13:01;101788.00;;;22.90;62.66
39949;BME280;29070;48.102;-1.652;2023-07-09T12:18:10;101789.00;;;22.83;62.84
39949;BME280;29070;48.102;-1.652;2023-07-09T12:28:20;101775.91;;;23.36;62.85
39949;BME280;29070;48.102;-1.652;2023-07-09T12:33:23;101785.91;;;23.84;62.00
39949;BME280;29070;48.102;-1.652;2023-07-09T12:38:26;101782.75;;;24.40;61.55
39949;BME280;29070;48.102;-1.652;2023-07-09T12:43:31;101787.25;;;24.97;59.77
39949;BME280;29070;48.102;-1.652;2023-07-09T12:48:32;101785.13;;;25.04;59.52
39949;BME280;29070;48.102;-1.652;2023-07-09T12:53:32;101798.06;;;25.38;58.88
39949;BME280;29070;48.102;-1.652;2023-07-09T12:58:36;101794.00;;;25.66;57.27
39949;BME280;29070;48.102;-1.652;2023-07-09T13:03:37;101792.41;;;25.45;57.16
39949;BME280;29070;48.102;-1.652;2023-07-09T13:08:43;101783.53;;;25.39;55.88
39949;BME280;29070;48.102;-1.652;2023-07-09T13:13:59;101775.75;;;25.43;54.95
39949;BME280;29070;48.102;-1.652;2023-07-09T13:19:00;101776.03;;;25.36;55.42
39949;BME280;29070;48.102;-1.652;2023-07-09T13:24:00;101773.59;;;25.55;55.04
39949;BME280;29070;48.102;-1.652;2023-07-09T13:29:01;101772.25;;;25.53;54.52
39949;BME280;29070;48.102;-1.652;2023-07-09T13:34:01;101756.88;;;26.04;53.34
39949;BME280;29070;48.102;-1.652;2023-07-09T13:39:02;101766.22;;;26.17;52.84
39949;BME280;29070;48.102;-1.652;2023-07-09T13:44:11;101747.34;;;26.33;51.40
39949;BME280;29070;48.102;-1.652;2023-07-09T13:49:17;101746.25;;;26.34;51.29
39949;BME280;29070;48.102;-1.652;2023-07-09T13:54:21;101745.31;;;26.64;51.09
39949;BME280;29070;48.102;-1.652;2023-07-09T13:59:24;101744.75;;;27.07;50.08
39949;BME280;29070;48.102;-1.652;2023-07-09T14:04:26;101750.19;;;27.36;49.05
39949;BME280;29070;48.102;-1.652;2023-07-09T14:09:26;101743.88;;;27.51;49.32
39949;BME280;29070;48.102;-1.652;2023-07-09T14:14:31;101742.03;;;27.70;48.59
39949;BME280;29070;48.102;-1.652;2023-07-09T14:19:32;101751.25;;;27.93;48.11
39949;BME280;29070;48.102;-1.652;2023-07-09T14:24:32;101740.91;;;28.25;48.11
39949;BME280;29070;48.102;-1.652;2023-07-09T14:29:33;101755.16;;;28.49;47.35
39949;BME280;29070;48.102;-1.652;2023-07-09T14:34:33;101750.69;;;28.21;46.18
39949;BME280;29070;48.102;-1.652;2023-07-09T14:39:34;101748.09;;;28.10;47.15
39949;BME280;29070;48.102;-1.652;2023-07-09T14:44:34;101749.00;;;28.25;46.68
39949;BME280;29070;48.102;-1.652;2023-07-09T14:49:34;101740.47;;;28.18;46.61
39949;BME280;29070;48.102;-1.652;2023-07-09T14:54:35;101745.56;;;27.95;46.73
39949;BME280;29070;48.102;-1.652;2023-07-09T14:59:35;101746.47;;;27.90;45.59
39949;BME280;29070;48.102;-1.652;2023-07-09T15:04:35;101741.75;;;28.01;45.65
39949;BME280;29070;48.102;-1.652;2023-07-09T15:09:36;101740.34;;;28.28;44.30
39949;BME280;29070;48.102;-1.652;2023-07-09T15:14:37;101726.78;;;28.09;44.67
39949;BME280;29070;48.102;-1.652;2023-07-09T15:19:38;101728.03;;;28.17;44.25
39949;BME280;29070;48.102;-1.652;2023-07-09T15:24:38;101732.63;;;28.40;43.30
39949;BME280;29070;48.102;-1.652;2023-07-09T15:29:39;101723.91;;;28.24;43.13
39949;BME280;29070;48.102;-1.652;2023-07-09T15:34:39;101717.06;;;28.08;42.77
39949;BME280;29070;48.102;-1.652;2023-07-09T15:39:39;101723.13;;;28.00;42.48
39949;BME280;29070;48.102;-1.652;2023-07-09T15:44:40;101710.28;;;27.91;42.08
39949;BME280;29070;48.102;-1.652;2023-07-09T15:49:41;101718.53;;;28.00;41.85
39949;BME280;29070;48.102;-1.652;2023-07-09T15:54:41;101722.59;;;28.22;41.20
39949;BME280;29070;48.102;-1.652;2023-07-09T15:59:41;101714.03;;;28.14;40.66
39949;BME280;29070;48.102;-1.652;2023-07-09T16:04:43;101715.78;;;28.05;40.49
39949;BME280;29070;48.102;-1.652;2023-07-09T16:09:44;101723.88;;;28.05;40.13
39949;BME280;29070;48.102;-1.652;2023-07-09T16:14:44;101725.09;;;27.94;39.82
39949;BME280;29070;48.102;-1.652;2023-07-09T16:19:45;101731.59;;;27.88;39.84
39949;BME280;29070;48.102;-1.652;2023-07-09T16:24:45;101730.31;;;27.56;40.05
39949;BME280;29070;48.102;-1.652;2023-07-09T16:29:46;101729.78;;;27.30;39.77
39949;BME280;29070;48.102;-1.652;2023-07-09T16:34:46;101734.25;;;27.05;39.92
39949;BME280;29070;48.102;-1.652;2023-07-09T16:39:46;101743.53;;;26.89;40.46
39949;BME280;29070;48.102;-1.652;2023-07-09T16:44:47;101736.28;;;26.84;40.55
39949;BME280;29070;48.102;-1.652;2023-07-09T16:49:48;101726.44;;;27.04;40.45
39949;BME280;29070;48.102;-1.652;2023-07-09T16:54:48;101726.25;;;27.29;39.91
39949;BME280;29070;48.102;-1.652;2023-07-09T16:59:49;101723.28;;;27.26;40.15
39949;BME280;29070;48.102;-1.652;2023-07-09T17:04:50;101725.97;;;26.96;40.13
39949;BME280;29070;48.102;-1.652;2023-07-09T17:09:54;101725.13;;;27.01;40.14
39949;BME280;29070;48.102;-1.652;2023-07-09T17:14:55;101725.03;;;26.77;40.67
39949;BME280;29070;48.102;-1.652;2023-07-09T17:19:55;101739.69;;;26.50;40.79
39949;BME280;29070;48.102;-1.652;2023-07-09T17:24:56;101743.25;;;26.40;40.89
39949;BME280;29070;48.102;-1.652;2023-07-09T17:29:56;101744.69;;;26.17;41.57
39949;BME280;29070;48.102;-1.652;2023-07-09T17:34:56;101746.38;;;25.98;41.64
39949;BME280;29070;48.102;-1.652;2023-07-09T17:39:57;101764.41;;;25.82;42.14
39949;BME280;29070;48.102;-1.652;2023-07-09T17:44:57;101762.31;;;25.63;42.43
39949;BME280;29070;48.102;-1.652;2023-07-09T17:49:57;101773.31;;;25.57;42.85
39949;BME280;29070;48.102;-1.652;2023-07-09T17:54:58;101765.78;;;25.48;42.82
39949;BME280;29070;48.102;-1.652;2023-07-09T17:59:58;101762.84;;;25.45;43.42
39949;BME280;29070;48.102;-1.652;2023-07-09T18:04:58;101768.50;;;25.33;43.52
39949;BME280;29070;48.102;-1.652;2023-07-09T18:09:59;101775.47;;;25.24;43.67
39949;BME280;29070;48.102;-1.652;2023-07-09T18:14:59;101777.06;;;25.04;43.87
39949;BME280;29070;48.102;-1.652;2023-07-09T18:20:00;101773.00;;;24.97;44.24
39949;BME280;29070;48.102;-1.652;2023-07-09T18:25:01;101782.38;;;24.84;44.31
39949;BME280;29070;48.102;-1.652;2023-07-09T18:30:01;101786.66;;;24.74;44.24
39949;BME280;29070;48.102;-1.652;2023-07-09T18:35:21;101778.28;;;24.66;45.00
39949;BME280;29070;48.102;-1.652;2023-07-09T18:40:26;101786.59;;;24.54;44.85
39949;BME280;29070;48.102;-1.652;2023-07-09T18:45:28;101779.53;;;24.43;45.09
39949;BME280;29070;48.102;-1.652;2023-07-09T18:50:30;101783.28;;;24.36;45.44
39949;BME280;29070;48.102;-1.652;2023-07-09T18:55:33;101786.44;;;24.28;45.74
39949;BME280;29070;48.102;-1.652;2023-07-09T19:00:33;101789.63;;;24.20;45.81
39949;BME280;29070;48.102;-1.652;2023-07-09T19:05:34;101797.84;;;24.03;46.23
39949;BME280;29070;48.102;-1.652;2023-07-09T19:10:36;101803.13;;;23.88;46.55
39949;BME280;29070;48.102;-1.652;2023-07-09T19:15:37;101798.97;;;23.75;46.73
39949;BME280;29070;48.102;-1.652;2023-07-09T19:20:37;101807.47;;;23.62;46.72
39949;BME280;29070;48.102;-1.652;2023-07-09T19:25:38;101812.16;;;23.49;47.19
39949;BME280;29070;48.102;-1.652;2023-07-09T19:30:39;101802.41;;;23.33;47.39
39949;BME280;29070;48.102;-1.652;2023-07-09T19:35:41;101814.84;;;23.17;48.07
39949;BME280;29070;48.102;-1.652;2023-07-09T19:40:41;101819.53;;;23.05;48.06
39949;BME280;29070;48.102;-1.652;2023-07-09T19:45:44;101820.44;;;22.93;48.64
39949;BME280;29070;48.102;-1.652;2023-07-09T19:50:46;101813.63;;;22.80;48.70
39949;BME280;29070;48.102;-1.652;2023-07-09T19:55:48;101823.13;;;22.71;49.24
39949;BME280;29070;48.102;-1.652;2023-07-09T20:00:49;101835.00;;;22.58;49.65
39949;BME280;29070;48.102;-1.652;2023-07-09T20:05:50;101845.56;;;22.48;49.74
39949;BME280;29070;48.102;-1.652;2023-07-09T20:10:52;101855.59;;;22.36;49.60
39949;BME280;29070;48.102;-1.652;2023-07-09T20:15:54;101862.63;;;22.25;50.19
39949;BME280;29070;48.102;-1.652;2023-07-09T20:20:58;101867.03;;;22.14;50.26
39949;BME280;29070;48.102;-1.652;2023-07-09T20:26:04;101877.81;;;22.02;50.52
39949;BME280;29070;48.102;-1.652;2023-07-09T20:31:31;101884.19;;;21.84;52.16
39949;BME280;29070;48.102;-1.652;2023-07-09T20:36:31;101905.63;;;21.73;51.84
39949;BME280;29070;48.102;-1.652;2023-07-09T20:41:31;101909.50;;;21.65;52.11
39949;BME280;29070;48.102;-1.652;2023-07-09T20:46:32;101917.56;;;21.53;52.09
39949;BME280;29070;48.102;-1.652;2023-07-09T20:51:32;101915.06;;;21.46;52.28
39949;BME280;29070;48.102;-1.652;2023-07-09T20:56:32;101916.72;;;21.36;52.87
39949;BME280;29070;48.102;-1.652;2023-07-09T21:01:33;101909.28;;;21.26;53.08
39949;BME280;29070;48.102;-1.652;2023-07-09T21:06:33;101909.41;;;21.19;53.08
39949;BME280;29070;48.102;-1.652;2023-07-09T21:11:33;101923.63;;;21.08;53.49
39949;BME280;29070;48.102;-1.652;2023-07-09T21:16:34;101918.91;;;20.98;54.06
39949;BME280;29070;48.102;-1.652;2023-07-09T21:21:34;101925.16;;;20.92;54.35
39949;BME280;29070;48.102;-1.652;2023-07-09T21:26:34;101921.22;;;20.83;54.48
39949;BME280;29070;48.102;-1.652;2023-07-09T21:31:35;101918.22;;;20.67;55.18
39949;BME280;29070;48.102;-1.652;2023-07-09T21:36:35;101925.06;;;20.63;55.44
39949;BME280;29070;48.102;-1.652;2023-07-09T21:41:35;101930.75;;;20.55;55.67
39949;BME280;29070;48.102;-1.652;2023-07-09T21:46:36;101945.22;;;20.47;56.04
39949;BME280;29070;48.102;-1.652;2023-07-09T21:51:37;101944.50;;;20.40;56.40
39949;BME280;29070;48.102;-1.652;2023-07-09T21:56:37;101947.53;;;20.32;56.64
39949;BME280;29070;48.102;-1.652;2023-07-09T22:01:38;101950.53;;;20.24;56.78
39949;BME280;29070;48.102;-1.652;2023-07-09T22:06:38;101956.78;;;20.17;56.94
39949;BME280;29070;48.102;-1.652;2023-07-09T22:11:39;101953.63;;;20.09;57.37
39949;BME280;29070;48.102;-1.652;2023-07-09T22:16:49;101953.59;;;19.97;57.93
39949;BME280;29070;48.102;-1.652;2023-07-09T22:21:49;101963.41;;;19.85;58.20
39949;BME280;29070;48.102;-1.652;2023-07-09T22:26:50;101964.75;;;19.75;58.49
39949;BME280;29070;48.102;-1.652;2023-07-09T22:31:51;101971.41;;;19.66;58.89
39949;BME280;29070;48.102;-1.652;2023-07-09T22:36:51;101963.28;;;19.61;58.77
39949;BME280;29070;48.102;-1.652;2023-07-09T22:41:52;101955.16;;;19.56;59.06
39949;BME280;29070;48.102;-1.652;2023-07-09T22:46:52;101965.72;;;19.44;59.55
39949;BME280;29070;48.102;-1.652;2023-07-09T22:51:53;101960.66;;;19.42;59.56
39949;BME280;29070;48.102;-1.652;2023-07-09T22:56:53;101966.41;;;19.39;59.84
39949;BME280;29070;48.102;-1.652;2023-07-09T23:01:54;101957.56;;;19.27;60.18
39949;BME280;29070;48.102;-1.652;2023-07-09T23:06:55;101957.63;;;19.20;60.35
39949;BME280;29070;48.102;-1.652;2023-07-09T23:11:55;101962.41;;;19.12;60.66
39949;BME280;29070;48.102;-1.652;2023-07-09T23:16:55;101969.22;;;19.08;60.68
39949;BME280;29070;48.102;-1.652;2023-07-09T23:21:57;101963.75;;;19.02;60.97
39949;BME280;29070;48.102;-1.652;2023-07-09T23:27:00;101968.53;;;18.94;61.13
39949;BME280;29070;48.102;-1.652;2023-07-09T23:32:01;101961.66;;;18.86;61.46
39949;BME280;29070;48.102;-1.652;2023-07-09T23:37:01;101962.97;;;18.77;61.71
39949;BME280;29070;48.102;-1.652;2023-07-09T23:42:03;101965.88;;;18.68;61.85
39949;BME280;29070;48.102;-1.652;2023-07-09T23:47:09;101968.63;;;18.62;62.38
39949;BME280;29070;48.102;-1.652;2023-07-09T23:52:10;101986.09;;;18.51;62.46
39949;BME280;29070;48.102;-1.652;2023-07-09T23:57:11;101978.16;;;18.44;62.66
